sensor_id;sensor_type;location;lat;lon;timestamp;P1;durP1;ratioP1;P2;durP2;ratioP2
64649;SDS011;51061;45.258;38.112;2022-07-23T00:02:59;27.25;;;6.60;;
64649;SDS011;51061;45.258;38.112;2022-07-23T00:07:51;28.45;;;7.45;;
64649;SDS011;51061;45.258;38.112;2022-07-23T00:12:43;27.08;;;7.45;;
64649;SDS011;51061;45.258;38.112;2022-07-23T00:15:09;30.52;;;7.40;;
64649;SDS011;51061;45.258;38.112;2022-07-23T00:17:36;31.42;;;7.55;;
64649;SDS011;51061;45.258;38.112;2022-07-23T00:22:28;19.45;;;5.93;;
64649;SDS011;51061;45.258;38.112;2022-07-23T00:24:55;14.50;;;5.32;;
64649;SDS011;51061;45.258;38.112;2022-07-23T00:27:22;14.27;;;4.50;;
64649;SDS011;51061;45.258;38.112;2022-07-23T00:29:48;17.42;;;4.43;;
64649;SDS011;51061;45.258;38.112;2022-07-23T00:32:14;13.43;;;4.35;;
64649;SDS011;51061;45.258;38.112;2022-07-23T00:34:40;13.45;;;4.47;;
64649;SDS011;51061;45.258;38.112;2022-07-23T00:37:06;13.48;;;3.92;;
64649;SDS011;51061;45.258;38.112;2022-07-23T00:39:33;16.35;;;4.30;;
64649;SDS011;51061;45.258;38.112;2022-07-23T00:44:25;13.32;;;4.85;;
64649;SDS011;51061;45.258;38.112;2022-07-23T00:46:53;12.10;;;5.15;;
64649;SDS011;51061;45.258;38.112;2022-07-23T00:49:22;10.98;;;4.80;;
64649;SDS011;51061;45.258;38.112;2022-07-23T00:51:49;14.18;;;4.10;;
64649;SDS011;51061;45.258;38.112;2022-07-23T00:54:16;13.50;;;4.78;;
64649;SDS011;51061;45.258;38.112;2022-07-23T00:56:44;15.45;;;4.85;;
64649;SDS011;51061;45.258;38.112;2022-07-23T00:59:11;10.88;;;4.60;;
64649;SDS011;51061;45.258;38.112;2022-07-23T01:04:03;8.73;;;3.30;;
64649;SDS011;51061;45.258;38.112;2022-07-23T01:06:30;10.93;;;3.85;;
64649;SDS011;51061;45.258;38.112;2022-07-23T01:09:00;10.45;;;3.97;;
64649;SDS011;51061;45.258;38.112;2022-07-23T01:11:27;16.42;;;4.38;;
64649;SDS011;51061;45.258;38.112;2022-07-23T01:16:19;9.25;;;4.00;;
64649;SDS011;51061;45.258;38.112;2022-07-23T01:18:46;12.07;;;4.47;;
64649;SDS011;51061;45.258;38.112;2022-07-23T01:21:12;12.25;;;4.53;;
64649;SDS011;51061;45.258;38.112;2022-07-23T01:23:38;11.55;;;4.03;;
64649;SDS011;51061;45.258;38.112;2022-07-23T01:26:05;12.23;;;4.63;;
64649;SDS011;51061;45.258;38.112;2022-07-23T01:28:31;16.88;;;4.35;;
64649;SDS011;51061;45.258;38.112;2022-07-23T01:30:58;13.10;;;4.07;;
64649;SDS011;51061;45.258;38.112;2022-07-23T01:33:31;10.57;;;4.03;;
64649;SDS011;51061;45.258;38.112;2022-07-23T01:40:51;13.73;;;4.82;;
64649;SDS011;51061;45.258;38.112;2022-07-23T01:43:17;18.42;;;5.47;;
64649;SDS011;51061;45.258;38.112;2022-07-23T01:45:44;11.30;;;4.50;;
64649;SDS011;51061;45.258;38.112;2022-07-23T01:48:12;11.30;;;4.45;;
64649;SDS011;51061;45.258;38.112;2022-07-23T01:50:46;12.40;;;4.65;;
64649;SDS011;51061;45.258;38.112;2022-07-23T01:53:42;9.77;;;4.65;;
64649;SDS011;51061;45.258;38.112;2022-07-23T01:58:34;11.30;;;4.35;;
64649;SDS011;51061;45.258;38.112;2022-07-23T02:01:00;12.63;;;4.82;;
64649;SDS011;51061;45.258;38.112;2022-07-23T02:03:26;16.65;;;5.30;;
64649;SDS011;51061;45.258;38.112;2022-07-23T02:08:19;15.60;;;5.20;;
64649;SDS011;51061;45.258;38.112;2022-07-23T02:10:45;13.70;;;4.80;;
64649;SDS011;51061;45.258;38.112;2022-07-23T02:15:37;13.00;;;5.10;;
64649;SDS011;51061;45.258;38.112;2022-07-23T02:20:30;14.10;;;5.00;;
64649;SDS011;51061;45.258;38.112;2022-07-23T02:25:22;14.57;;;5.32;;
64649;SDS011;51061;45.258;38.112;2022-07-23T02:27:52;14.27;;;4.90;;
64649;SDS011;51061;45.258;38.112;2022-07-23T02:30:18;15.75;;;5.45;;
64649;SDS011;51061;45.258;38.112;2022-07-23T02:35:11;17.77;;;5.57;;
64649;SDS011;51061;45.258;38.112;2022-07-23T02:37:37;14.80;;;5.88;;
64649;SDS011;51061;45.258;38.112;2022-07-23T02:42:32;25.58;;;5.45;;
64649;SDS011;51061;45.258;38.112;2022-07-23T02:47:25;15.45;;;5.57;;
64649;SDS011;51061;45.258;38.112;2022-07-23T02:52:17;19.67;;;5.32;;
64649;SDS011;51061;45.258;38.112;2022-07-23T02:54:43;10.95;;;5.10;;
64649;SDS011;51061;45.258;38.112;2022-07-23T02:57:12;21.05;;;5.85;;
64649;SDS011;51061;45.258;38.112;2022-07-23T02:59:39;19.85;;;6.20;;
64649;SDS011;51061;45.258;38.112;2022-07-23T03:04:31;23.45;;;6.38;;
64649;SDS011;51061;45.258;38.112;2022-07-23T03:06:57;19.40;;;6.57;;
64649;SDS011;51061;45.258;38.112;2022-07-23T03:09:24;21.92;;;6.90;;
64649;SDS011;51061;45.258;38.112;2022-07-23T03:11:51;18.95;;;6.22;;
64649;SDS011;51061;45.258;38.112;2022-07-23T03:14:19;18.80;;;5.93;;
64649;SDS011;51061;45.258;38.112;2022-07-23T03:16:45;17.35;;;6.28;;
64649;SDS011;51061;45.258;38.112;2022-07-23T03:21:37;24.55;;;7.28;;
64649;SDS011;51061;45.258;38.112;2022-07-23T03:24:09;19.50;;;8.10;;
64649;SDS011;51061;45.258;38.112;2022-07-23T03:26:35;31.85;;;9.35;;
64649;SDS011;51061;45.258;38.112;2022-07-23T03:29:02;25.55;;;8.23;;
64649;SDS011;51061;45.258;38.112;2022-07-23T03:31:30;16.02;;;5.97;;
64649;SDS011;51061;45.258;38.112;2022-07-23T03:33:56;20.30;;;6.38;;
64649;SDS011;51061;45.258;38.112;2022-07-23T03:36:23;21.08;;;7.13;;
64649;SDS011;51061;45.258;38.112;2022-07-23T03:38:52;18.75;;;6.78;;
64649;SDS011;51061;45.258;38.112;2022-07-23T03:41:19;21.30;;;7.30;;
64649;SDS011;51061;45.258;38.112;2022-07-23T03:43:46;20.35;;;7.25;;
64649;SDS011;51061;45.258;38.112;2022-07-23T03:46:12;15.68;;;6.35;;
64649;SDS011;51061;45.258;38.112;2022-07-23T03:48:38;15.50;;;6.93;;
64649;SDS011;51061;45.258;38.112;2022-07-23T03:51:05;17.17;;;7.18;;
64649;SDS011;51061;45.258;38.112;2022-07-23T03:53:31;21.75;;;7.30;;
64649;SDS011;51061;45.258;38.112;2022-07-23T03:55:57;16.83;;;6.68;;
64649;SDS011;51061;45.258;38.112;2022-07-23T03:58:24;18.95;;;7.47;;
64649;SDS011;51061;45.258;38.112;2022-07-23T04:00:51;20.52;;;7.15;;
64649;SDS011;51061;45.258;38.112;2022-07-23T04:03:19;20.95;;;7.45;;
64649;SDS011;51061;45.258;38.112;2022-07-23T04:05:45;15.63;;;6.72;;
64649;SDS011;51061;45.258;38.112;2022-07-23T04:08:13;14.65;;;6.72;;
64649;SDS011;51061;45.258;38.112;2022-07-23T04:10:43;19.73;;;8.85;;
64649;SDS011;51061;45.258;38.112;2022-07-23T04:13:10;18.73;;;6.38;;
64649;SDS011;51061;45.258;38.112;2022-07-23T04:15:36;20.17;;;7.72;;
64649;SDS011;51061;45.258;38.112;2022-07-23T04:18:04;22.63;;;9.20;;
64649;SDS011;51061;45.258;38.112;2022-07-23T04:20:40;24.02;;;9.80;;
64649;SDS011;51061;45.258;38.112;2022-07-23T04:23:08;20.38;;;7.80;;
64649;SDS011;51061;45.258;38.112;2022-07-23T04:25:38;23.27;;;8.90;;
64649;SDS011;51061;45.258;38.112;2022-07-23T04:28:05;28.27;;;7.50;;
64649;SDS011;51061;45.258;38.112;2022-07-23T04:32:57;20.23;;;7.23;;
64649;SDS011;51061;45.258;38.112;2022-07-23T04:35:26;18.90;;;6.35;;
64649;SDS011;51061;45.258;38.112;2022-07-23T04:38:01;25.58;;;8.73;;
64649;SDS011;51061;45.258;38.112;2022-07-23T04:40:28;21.67;;;7.53;;
64649;SDS011;51061;45.258;38.112;2022-07-23T04:42:54;17.73;;;6.53;;
64649;SDS011;51061;45.258;38.112;2022-07-23T04:45:22;23.08;;;7.07;;
64649;SDS011;51061;45.258;38.112;2022-07-23T04:47:51;14.48;;;5.57;;
64649;SDS011;51061;45.258;38.112;2022-07-23T04:50:17;17.65;;;6.57;;
64649;SDS011;51061;45.258;38.112;2022-07-23T04:52:47;19.23;;;7.25;;
64649;SDS011;51061;45.258;38.112;2022-07-23T04:55:14;12.63;;;6.18;;
64649;SDS011;51061;45.258;38.112;2022-07-23T04:57:41;11.43;;;5.07;;
64649;SDS011;51061;45.258;38.112;2022-07-23T05:00:07;16.25;;;5.95;;
64649;SDS011;51061;45.258;38.112;2022-07-23T05:02:34;19.10;;;7.40;;
64649;SDS011;51061;45.258;38.112;2022-07-23T05:05:00;15.02;;;5.75;;
64649;SDS011;51061;45.258;38.112;2022-07-23T05:07:26;17.05;;;6.47;;
64649;SDS011;51061;45.258;38.112;2022-07-23T05:09:53;26.27;;;9.80;;
64649;SDS011;51061;45.258;38.112;2022-07-23T05:12:19;14.00;;;6.55;;
64649;SDS011;51061;45.258;38.112;2022-07-23T05:14:45;14.95;;;5.65;;
64649;SDS011;51061;45.258;38.112;2022-07-23T05:17:11;14.75;;;5.93;;
64649;SDS011;51061;45.258;38.112;2022-07-23T05:19:38;16.20;;;5.50;;
64649;SDS011;51061;45.258;38.112;2022-07-23T05:22:04;10.38;;;5.53;;
64649;SDS011;51061;45.258;38.112;2022-07-23T05:24:31;16.65;;;5.85;;
64649;SDS011;51061;45.258;38.112;2022-07-23T05:26:57;15.55;;;6.15;;
64649;SDS011;51061;45.258;38.112;2022-07-23T05:29:23;16.95;;;6.20;;
64649;SDS011;51061;45.258;38.112;2022-07-23T05:31:49;13.63;;;5.60;;
64649;SDS011;51061;45.258;38.112;2022-07-23T05:34:15;14.45;;;5.57;;
64649;SDS011;51061;45.258;38.112;2022-07-23T05:36:42;18.20;;;7.13;;
64649;SDS011;51061;45.258;38.112;2022-07-23T05:39:09;11.07;;;5.50;;
64649;SDS011;51061;45.258;38.112;2022-07-23T05:41:36;14.65;;;5.80;;
64649;SDS011;51061;45.258;38.112;2022-07-23T05:44:03;18.20;;;6.18;;
64649;SDS011;51061;45.258;38.112;2022-07-23T05:46:30;17.15;;;5.82;;
64649;SDS011;51061;45.258;38.112;2022-07-23T05:49:02;15.10;;;5.93;;
64649;SDS011;51061;45.258;38.112;2022-07-23T05:51:46;13.10;;;5.70;;
64649;SDS011;51061;45.258;38.112;2022-07-23T05:54:15;10.27;;;5.43;;
64649;SDS011;51061;45.258;38.112;2022-07-23T05:56:41;17.83;;;7.13;;
64649;SDS011;51061;45.258;38.112;2022-07-23T05:59:07;11.82;;;5.53;;
64649;SDS011;51061;45.258;38.112;2022-07-23T06:01:33;8.77;;;5.25;;
64649;SDS011;51061;45.258;38.112;2022-07-23T06:04:08;14.75;;;5.97;;
64649;SDS011;51061;45.258;38.112;2022-07-23T06:06:38;12.30;;;6.10;;
64649;SDS011;51061;45.258;38.112;2022-07-23T06:09:06;29.05;;;10.70;;
64649;SDS011;51061;45.258;38.112;2022-07-23T06:11:33;10.38;;;4.97;;
64649;SDS011;51061;45.258;38.112;2022-07-23T06:13:59;11.00;;;5.05;;
64649;SDS011;51061;45.258;38.112;2022-07-23T06:16:39;12.35;;;4.97;;
64649;SDS011;51061;45.258;38.112;2022-07-23T06:19:05;11.02;;;4.82;;
64649;SDS011;51061;45.258;38.112;2022-07-23T06:21:31;8.65;;;4.18;;
64649;SDS011;51061;45.258;38.112;2022-07-23T06:23:57;13.63;;;4.90;;
64649;SDS011;51061;45.258;38.112;2022-07-23T06:26:23;10.23;;;4.88;;
64649;SDS011;51061;45.258;38.112;2022-07-23T06:28:49;9.68;;;4.00;;
64649;SDS011;51061;45.258;38.112;2022-07-23T06:31:15;7.72;;;3.70;;
64649;SDS011;51061;45.258;38.112;2022-07-23T06:33:41;9.70;;;4.10;;
64649;SDS011;51061;45.258;38.112;2022-07-23T06:36:07;20.33;;;7.88;;
64649;SDS011;51061;45.258;38.112;2022-07-23T06:38:33;7.22;;;3.45;;
64649;SDS011;51061;45.258;38.112;2022-07-23T06:41:00;9.48;;;3.90;;
64649;SDS011;51061;45.258;38.112;2022-07-23T06:43:26;7.38;;;3.40;;
64649;SDS011;51061;45.258;38.112;2022-07-23T06:45:54;10.55;;;4.25;;
64649;SDS011;51061;45.258;38.112;2022-07-23T06:48:20;12.50;;;3.80;;
64649;SDS011;51061;45.258;38.112;2022-07-23T06:50:47;8.27;;;3.33;;
64649;SDS011;51061;45.258;38.112;2022-07-23T06:53:15;12.30;;;4.03;;
64649;SDS011;51061;45.258;38.112;2022-07-23T06:55:41;11.02;;;3.97;;
64649;SDS011;51061;45.258;38.112;2022-07-23T06:58:07;10.70;;;4.10;;
64649;SDS011;51061;45.258;38.112;2022-07-23T07:00:35;8.27;;;3.80;;
64649;SDS011;51061;45.258;38.112;2022-07-23T07:03:02;17.67;;;6.68;;
64649;SDS011;51061;45.258;38.112;2022-07-23T07:05:28;16.60;;;4.00;;
64649;SDS011;51061;45.258;38.112;2022-07-23T07:07:54;10.40;;;3.40;;
64649;SDS011;51061;45.258;38.112;2022-07-23T07:10:20;6.75;;;3.35;;
64649;SDS011;51061;45.258;38.112;2022-07-23T07:12:47;7.40;;;3.08;;
64649;SDS011;51061;45.258;38.112;2022-07-23T07:15:13;8.13;;;3.13;;
64649;SDS011;51061;45.258;38.112;2022-07-23T07:17:39;6.90;;;3.50;;
64649;SDS011;51061;45.258;38.112;2022-07-23T07:20:05;7.47;;;3.78;;
64649;SDS011;51061;45.258;38.112;2022-07-23T07:22:31;9.93;;;3.40;;
64649;SDS011;51061;45.258;38.112;2022-07-23T07:24:57;8.50;;;2.75;;
64649;SDS011;51061;45.258;38.112;2022-07-23T07:27:24;8.68;;;3.22;;
64649;SDS011;51061;45.258;38.112;2022-07-23T07:29:49;8.85;;;3.30;;
64649;SDS011;51061;45.258;38.112;2022-07-23T07:32:16;9.95;;;3.40;;
64649;SDS011;51061;45.258;38.112;2022-07-23T07:34:42;8.18;;;2.70;;
64649;SDS011;51061;45.258;38.112;2022-07-23T07:37:08;4.97;;;2.58;;
64649;SDS011;51061;45.258;38.112;2022-07-23T07:39:34;10.70;;;2.72;;
64649;SDS011;51061;45.258;38.112;2022-07-23T07:42:00;5.30;;;2.35;;
64649;SDS011;51061;45.258;38.112;2022-07-23T07:44:26;5.45;;;2.28;;
64649;SDS011;51061;45.258;38.112;2022-07-23T07:46:52;18.83;;;6.13;;
64649;SDS011;51061;45.258;38.112;2022-07-23T07:49:18;8.70;;;3.38;;
64649;SDS011;51061;45.258;38.112;2022-07-23T07:51:45;5.97;;;2.50;;
64649;SDS011;51061;45.258;38.112;2022-07-23T07:54:14;8.73;;;3.13;;
64649;SDS011;51061;45.258;38.112;2022-07-23T07:56:40;8.35;;;2.83;;
64649;SDS011;51061;45.258;38.112;2022-07-23T07:59:06;7.53;;;3.50;;
64649;SDS011;51061;45.258;38.112;2022-07-23T08:01:33;6.78;;;3.33;;
64649;SDS011;51061;45.258;38.112;2022-07-23T08:03:59;7.53;;;3.47;;
64649;SDS011;51061;45.258;38.112;2022-07-23T08:06:25;7.68;;;3.17;;
64649;SDS011;51061;45.258;38.112;2022-07-23T08:08:51;6.72;;;2.97;;
64649;SDS011;51061;45.258;38.112;2022-07-23T08:11:17;10.10;;;3.00;;
64649;SDS011;51061;45.258;38.112;2022-07-23T08:13:43;8.82;;;2.88;;
64649;SDS011;51061;45.258;38.112;2022-07-23T08:16:10;8.23;;;3.67;;
64649;SDS011;51061;45.258;38.112;2022-07-23T08:18:36;6.20;;;2.88;;
64649;SDS011;51061;45.258;38.112;2022-07-23T08:21:03;6.15;;;2.60;;
64649;SDS011;51061;45.258;38.112;2022-07-23T08:23:31;6.55;;;2.55;;
64649;SDS011;51061;45.258;38.112;2022-07-23T08:25:57;9.52;;;2.55;;
64649;SDS011;51061;45.258;38.112;2022-07-23T08:28:25;6.20;;;2.75;;
64649;SDS011;51061;45.258;38.112;2022-07-23T08:30:51;4.20;;;2.65;;
64649;SDS011;51061;45.258;38.112;2022-07-23T08:33:17;4.90;;;2.50;;
64649;SDS011;51061;45.258;38.112;2022-07-23T08:35:48;6.43;;;2.80;;
64649;SDS011;51061;45.258;38.112;2022-07-23T08:38:16;13.60;;;3.00;;
64649;SDS011;51061;45.258;38.112;2022-07-23T08:40:44;11.07;;;2.85;;
64649;SDS011;51061;45.258;38.112;2022-07-23T08:43:20;5.38;;;2.47;;
64649;SDS011;51061;45.258;38.112;2022-07-23T08:45:51;6.28;;;2.80;;
64649;SDS011;51061;45.258;38.112;2022-07-23T08:48:20;9.70;;;2.75;;
64649;SDS011;51061;45.258;38.112;2022-07-23T08:50:50;9.85;;;4.22;;
64649;SDS011;51061;45.258;38.112;2022-07-23T08:53:18;5.38;;;2.72;;
64649;SDS011;51061;45.258;38.112;2022-07-23T08:55:46;8.43;;;3.00;;
64649;SDS011;51061;45.258;38.112;2022-07-23T08:58:13;10.02;;;2.95;;
64649;SDS011;51061;45.258;38.112;2022-07-23T09:00:41;5.90;;;2.55;;
64649;SDS011;51061;45.258;38.112;2022-07-23T09:03:07;8.68;;;2.85;;
64649;SDS011;51061;45.258;38.112;2022-07-23T09:05:40;7.40;;;2.65;;
64649;SDS011;51061;45.258;38.112;2022-07-23T09:08:15;5.00;;;2.65;;
64649;SDS011;51061;45.258;38.112;2022-07-23T09:10:44;8.98;;;2.83;;
64649;SDS011;51061;45.258;38.112;2022-07-23T09:15:54;6.78;;;2.70;;
64649;SDS011;51061;45.258;38.112;2022-07-23T09:21:11;6.10;;;2.42;;
64649;SDS011;51061;45.258;38.112;2022-07-23T09:31:51;13.05;;;2.60;;
64649;SDS011;51061;45.258;38.112;2022-07-23T09:39:46;6.78;;;2.28;;
64649;SDS011;51061;45.258;38.112;2022-07-23T09:42:19;10.70;;;2.75;;
64649;SDS011;51061;45.258;38.112;2022-07-23T09:44:51;8.80;;;2.30;;
64649;SDS011;51061;45.258;38.112;2022-07-23T09:47:18;8.18;;;2.55;;
64649;SDS011;51061;45.258;38.112;2022-07-23T09:50:04;5.43;;;2.60;;
64649;SDS011;51061;45.258;38.112;2022-07-23T09:52:37;7.78;;;2.63;;
64649;SDS011;51061;45.258;38.112;2022-07-23T09:55:10;7.07;;;3.38;;
64649;SDS011;51061;45.258;38.112;2022-07-23T09:57:36;14.00;;;2.95;;
64649;SDS011;51061;45.258;38.112;2022-07-23T10:00:05;11.18;;;3.20;;
64649;SDS011;51061;45.258;38.112;2022-07-23T10:02:35;8.13;;;3.45;;
64649;SDS011;51061;45.258;38.112;2022-07-23T10:05:20;8.02;;;2.67;;
64649;SDS011;51061;45.258;38.112;2022-07-23T10:08:07;5.63;;;2.60;;
64649;SDS011;51061;45.258;38.112;2022-07-23T10:10:56;4.90;;;2.60;;
64649;SDS011;51061;45.258;38.112;2022-07-23T10:13:42;5.28;;;2.63;;
64649;SDS011;51061;45.258;38.112;2022-07-23T10:16:14;20.52;;;6.15;;
64649;SDS011;51061;45.258;38.112;2022-07-23T10:18:41;9.68;;;3.00;;
64649;SDS011;51061;45.258;38.112;2022-07-23T10:21:07;8.20;;;2.95;;
64649;SDS011;51061;45.258;38.112;2022-07-23T10:31:25;9.40;;;3.50;;
64649;SDS011;51061;45.258;38.112;2022-07-23T10:34:23;14.13;;;2.78;;
64649;SDS011;51061;45.258;38.112;2022-07-23T10:39:28;7.85;;;2.83;;
64649;SDS011;51061;45.258;38.112;2022-07-23T10:42:09;6.75;;;2.85;;
64649;SDS011;51061;45.258;38.112;2022-07-23T10:44:46;10.60;;;3.30;;
64649;SDS011;51061;45.258;38.112;2022-07-23T10:47:21;6.53;;;3.15;;
64649;SDS011;51061;45.258;38.112;2022-07-23T10:50:18;14.15;;;5.22;;
64649;SDS011;51061;45.258;38.112;2022-07-23T10:53:08;13.25;;;3.60;;
64649;SDS011;51061;45.258;38.112;2022-07-23T10:58:01;6.07;;;2.60;;
64649;SDS011;51061;45.258;38.112;2022-07-23T11:00:29;10.98;;;2.33;;
64649;SDS011;51061;45.258;38.112;2022-07-23T11:03:01;8.00;;;2.40;;
64649;SDS011;51061;45.258;38.112;2022-07-23T11:05:44;7.18;;;2.53;;
64649;SDS011;51061;45.258;38.112;2022-07-23T11:13:31;11.75;;;3.00;;
64649;SDS011;51061;45.258;38.112;2022-07-23T11:32:02;9.63;;;2.80;;
64649;SDS011;51061;45.258;38.112;2022-07-23T11:37:06;6.00;;;2.85;;
64649;SDS011;51061;45.258;38.112;2022-07-23T11:39:34;6.43;;;3.20;;
64649;SDS011;51061;45.258;38.112;2022-07-23T11:42:01;9.90;;;3.30;;
64649;SDS011;51061;45.258;38.112;2022-07-23T11:44:33;7.97;;;3.28;;
64649;SDS011;51061;45.258;38.112;2022-07-23T11:49:33;14.20;;;3.17;;
64649;SDS011;51061;45.258;38.112;2022-07-23T11:54:40;8.52;;;3.58;;
64649;SDS011;51061;45.258;38.112;2022-07-23T11:57:15;9.15;;;3.33;;
64649;SDS011;51061;45.258;38.112;2022-07-23T11:59:41;8.68;;;3.33;;
64649;SDS011;51061;45.258;38.112;2022-07-23T12:02:09;13.68;;;3.85;;
64649;SDS011;51061;45.258;38.112;2022-07-23T12:04:39;16.40;;;3.58;;
64649;SDS011;51061;45.258;38.112;2022-07-23T12:10:15;10.73;;;3.55;;
64649;SDS011;51061;45.258;38.112;2022-07-23T12:12:45;7.32;;;3.30;;
64649;SDS011;51061;45.258;38.112;2022-07-23T12:15:12;7.30;;;3.30;;
64649;SDS011;51061;45.258;38.112;2022-07-23T12:17:42;7.75;;;3.30;;
64649;SDS011;51061;45.258;38.112;2022-07-23T12:22:57;8.77;;;3.10;;
64649;SDS011;51061;45.258;38.112;2022-07-23T12:25:34;7.82;;;3.13;;
64649;SDS011;51061;45.258;38.112;2022-07-23T12:28:07;12.05;;;3.70;;
64649;SDS011;51061;45.258;38.112;2022-07-23T12:30:39;11.10;;;4.07;;
64649;SDS011;51061;45.258;38.112;2022-07-23T12:33:07;12.45;;;4.18;;
64649;SDS011;51061;45.258;38.112;2022-07-23T12:35:44;10.45;;;3.50;;
64649;SDS011;51061;45.258;38.112;2022-07-23T12:38:12;10.13;;;3.17;;
64649;SDS011;51061;45.258;38.112;2022-07-23T12:43:11;5.78;;;3.17;;
64649;SDS011;51061;45.258;38.112;2022-07-23T12:51:16;9.80;;;3.20;;
64649;SDS011;51061;45.258;38.112;2022-07-23T12:53:46;8.35;;;2.88;;
64649;SDS011;51061;45.258;38.112;2022-07-23T12:56:20;10.43;;;3.50;;
64649;SDS011;51061;45.258;38.112;2022-07-23T12:58:58;7.18;;;3.53;;
64649;SDS011;51061;45.258;38.112;2022-07-23T13:01:52;14.55;;;3.85;;
64649;SDS011;51061;45.258;38.112;2022-07-23T13:04:24;22.30;;;8.05;;
64649;SDS011;51061;45.258;38.112;2022-07-23T13:06:55;9.43;;;3.78;;
64649;SDS011;51061;45.258;38.112;2022-07-23T13:09:25;12.52;;;3.50;;
64649;SDS011;51061;45.258;38.112;2022-07-23T13:11:54;7.60;;;3.55;;
64649;SDS011;51061;45.258;38.112;2022-07-23T13:14:21;6.88;;;3.25;;
64649;SDS011;51061;45.258;38.112;2022-07-23T13:16:50;6.85;;;3.30;;
64649;SDS011;51061;45.258;38.112;2022-07-23T13:19:17;8.52;;;3.67;;
64649;SDS011;51061;45.258;38.112;2022-07-23T13:21:44;6.15;;;3.25;;
64649;SDS011;51061;45.258;38.112;2022-07-23T13:24:11;11.15;;;3.75;;
64649;SDS011;51061;45.258;38.112;2022-07-23T13:26:38;8.23;;;3.75;;
64649;SDS011;51061;45.258;38.112;2022-07-23T13:29:05;9.77;;;4.00;;
64649;SDS011;51061;45.258;38.112;2022-07-23T13:31:32;11.48;;;4.13;;
64649;SDS011;51061;45.258;38.112;2022-07-23T13:33:58;9.07;;;3.33;;
64649;SDS011;51061;45.258;38.112;2022-07-23T13:36:24;8.82;;;3.60;;
64649;SDS011;51061;45.258;38.112;2022-07-23T13:38:50;8.20;;;4.00;;
64649;SDS011;51061;45.258;38.112;2022-07-23T13:41:17;6.72;;;3.92;;
64649;SDS011;51061;45.258;38.112;2022-07-23T13:43:43;8.27;;;3.50;;
64649;SDS011;51061;45.258;38.112;2022-07-23T13:46:09;12.02;;;4.65;;
64649;SDS011;51061;45.258;38.112;2022-07-23T13:48:36;14.05;;;4.20;;
64649;SDS011;51061;45.258;38.112;2022-07-23T13:51:02;11.73;;;5.00;;
64649;SDS011;51061;45.258;38.112;2022-07-23T13:53:28;14.20;;;4.63;;
64649;SDS011;51061;45.258;38.112;2022-07-23T13:55:54;14.05;;;3.88;;
64649;SDS011;51061;45.258;38.112;2022-07-23T13:58:20;9.93;;;3.83;;
64649;SDS011;51061;45.258;38.112;2022-07-23T14:00:48;6.85;;;3.35;;
64649;SDS011;51061;45.258;38.112;2022-07-23T14:03:17;14.23;;;3.90;;
64649;SDS011;51061;45.258;38.112;2022-07-23T14:05:44;11.38;;;3.97;;
64649;SDS011;51061;45.258;38.112;2022-07-23T14:08:10;13.18;;;3.53;;
64649;SDS011;51061;45.258;38.112;2022-07-23T14:10:37;13.82;;;3.97;;
64649;SDS011;51061;45.258;38.112;2022-07-23T14:13:03;7.35;;;3.70;;
64649;SDS011;51061;45.258;38.112;2022-07-23T14:15:30;15.02;;;6.25;;
64649;SDS011;51061;45.258;38.112;2022-07-23T14:17:58;10.15;;;4.53;;
64649;SDS011;51061;45.258;38.112;2022-07-23T14:20:24;8.05;;;3.63;;
64649;SDS011;51061;45.258;38.112;2022-07-23T14:22:51;10.27;;;4.53;;
64649;SDS011;51061;45.258;38.112;2022-07-23T14:25:18;11.43;;;4.18;;
64649;SDS011;51061;45.258;38.112;2022-07-23T14:27:45;12.27;;;3.85;;
64649;SDS011;51061;45.258;38.112;2022-07-23T14:30:12;8.27;;;3.78;;
64649;SDS011;51061;45.258;38.112;2022-07-23T14:32:40;7.82;;;3.58;;
64649;SDS011;51061;45.258;38.112;2022-07-23T14:35:06;13.90;;;4.95;;
64649;SDS011;51061;45.258;38.112;2022-07-23T14:37:32;7.35;;;4.00;;
64649;SDS011;51061;45.258;38.112;2022-07-23T14:39:59;10.93;;;3.95;;
64649;SDS011;51061;45.258;38.112;2022-07-23T14:42:25;8.98;;;4.28;;
64649;SDS011;51061;45.258;38.112;2022-07-23T14:44:51;10.27;;;4.22;;
64649;SDS011;51061;45.258;38.112;2022-07-23T14:47:19;11.25;;;4.45;;
64649;SDS011;51061;45.258;38.112;2022-07-23T14:49:45;11.52;;;4.25;;
64649;SDS011;51061;45.258;38.112;2022-07-23T14:52:11;9.18;;;4.28;;
64649;SDS011;51061;45.258;38.112;2022-07-23T14:54:37;10.82;;;4.18;;
64649;SDS011;51061;45.258;38.112;2022-07-23T14:57:03;10.25;;;4.25;;
64649;SDS011;51061;45.258;38.112;2022-07-23T14:59:29;9.52;;;4.13;;
64649;SDS011;51061;45.258;38.112;2022-07-23T15:01:56;11.43;;;4.75;;
64649;SDS011;51061;45.258;38.112;2022-07-23T15:04:23;8.85;;;4.28;;
64649;SDS011;51061;45.258;38.112;2022-07-23T15:06:50;12.60;;;4.88;;
64649;SDS011;51061;45.258;38.112;2022-07-23T15:09:16;10.27;;;4.55;;
64649;SDS011;51061;45.258;38.112;2022-07-23T15:11:43;8.25;;;4.47;;
64649;SDS011;51061;45.258;38.112;2022-07-23T15:14:09;10.45;;;4.47;;
64649;SDS011;51061;45.258;38.112;2022-07-23T15:16:35;8.75;;;4.60;;
64649;SDS011;51061;45.258;38.112;2022-07-23T15:19:02;9.80;;;4.50;;
64649;SDS011;51061;45.258;38.112;2022-07-23T15:21:29;9.13;;;4.55;;
64649;SDS011;51061;45.258;38.112;2022-07-23T15:23:56;18.67;;;5.20;;
64649;SDS011;51061;45.258;38.112;2022-07-23T15:26:26;11.00;;;4.47;;
64649;SDS011;51061;45.258;38.112;2022-07-23T15:28:53;9.43;;;4.63;;
64649;SDS011;51061;45.258;38.112;2022-07-23T15:31:19;12.73;;;5.43;;
64649;SDS011;51061;45.258;38.112;2022-07-23T15:33:46;15.05;;;5.40;;
64649;SDS011;51061;45.258;38.112;2022-07-23T15:36:12;13.23;;;5.32;;
64649;SDS011;51061;45.258;38.112;2022-07-23T15:38:38;12.68;;;5.40;;
64649;SDS011;51061;45.258;38.112;2022-07-23T15:41:04;11.00;;;4.97;;
64649;SDS011;51061;45.258;38.112;2022-07-23T15:43:33;12.20;;;5.03;;
64649;SDS011;51061;45.258;38.112;2022-07-23T15:46:00;10.50;;;4.95;;
64649;SDS011;51061;45.258;38.112;2022-07-23T15:48:26;11.68;;;5.82;;
64649;SDS011;51061;45.258;38.112;2022-07-23T15:50:52;10.15;;;5.22;;
64649;SDS011;51061;45.258;38.112;2022-07-23T15:53:19;11.25;;;5.00;;
64649;SDS011;51061;45.258;38.112;2022-07-23T15:55:45;25.90;;;8.60;;
64649;SDS011;51061;45.258;38.112;2022-07-23T15:58:12;14.63;;;5.88;;
64649;SDS011;51061;45.258;38.112;2022-07-23T16:00:39;13.85;;;6.22;;
64649;SDS011;51061;45.258;38.112;2022-07-23T16:03:05;18.90;;;6.50;;
64649;SDS011;51061;45.258;38.112;2022-07-23T16:05:31;14.43;;;6.00;;
64649;SDS011;51061;45.258;38.112;2022-07-23T16:08:01;12.60;;;5.60;;
64649;SDS011;51061;45.258;38.112;2022-07-23T16:10:29;14.75;;;5.30;;
64649;SDS011;51061;45.258;38.112;2022-07-23T16:12:55;12.50;;;4.78;;
64649;SDS011;51061;45.258;38.112;2022-07-23T16:15:21;12.00;;;4.63;;
64649;SDS011;51061;45.258;38.112;2022-07-23T16:17:48;19.30;;;5.47;;
64649;SDS011;51061;45.258;38.112;2022-07-23T16:20:14;11.73;;;5.35;;
64649;SDS011;51061;45.258;38.112;2022-07-23T16:22:40;9.95;;;4.40;;
64649;SDS011;51061;45.258;38.112;2022-07-23T16:25:07;10.88;;;4.88;;
64649;SDS011;51061;45.258;38.112;2022-07-23T16:27:37;12.88;;;4.65;;
64649;SDS011;51061;45.258;38.112;2022-07-23T16:30:05;11.98;;;5.00;;
64649;SDS011;51061;45.258;38.112;2022-07-23T16:32:33;10.90;;;5.28;;
64649;SDS011;51061;45.258;38.112;2022-07-23T16:34:59;11.65;;;5.40;;
64649;SDS011;51061;45.258;38.112;2022-07-23T16:37:25;11.68;;;5.68;;